Time;durP1;ratioP1;P1;durP2;ratioP2;P2;SDS_P1;SDS_P2;PMS_P1;PMS_P2;Temp;Humidity;BMP_temperature;BMP_pressure;BME280_temperature;BME280_humidity;BME280_pressure;Samples;Min_cycle;Max_cycle;Signal;HPM_P1;HPM_P2
2022/09/14 00:01:28;;;;;;;5.63;5.13;;;;;;;19.45;100.00;99322.31;5119911;27;20187;-75
2022/09/14 00:03:59;;;;;;;5.30;4.80;;;;;;;19.45;100.00;99317.06;5106004;27;20696;-76
2022/09/14 00:06:25;;;;;;;5.27;4.87;;;;;;;19.44;100.00;99316.22;5108886;27;20189;-73
2022/09/14 00:08:52;;;;;;;5.37;4.33;;;;;;;19.46;100.00;99316.97;5101947;28;20227;-75
2022/09/14 00:11:19;;;;;;;4.87;4.47;;;;;;;19.46;100.00;99310.88;5105680;27;21040;-75
2022/09/14 00:13:46;;;;;;;4.30;4.00;;;;;;;19.46;100.00;99309.09;5108748;27;20397;-75
2022/09/14 00:16:15;;;;;;;6.77;4.63;;;;;;;19.44;100.00;99297.03;5107801;27;20298;-75
2022/09/14 00:18:41;;;;;;;5.17;4.30;;;;;;;19.44;100.00;99297.03;5108616;27;20215;-76
2022/09/14 00:21:09;;;;;;;5.03;4.47;;;;;;;19.42;100.00;99302.38;5096200;27;21061;-76
2022/09/14 00:23:36;;;;;;;4.77;4.37;;;;;;;19.41;100.00;99295.44;5106959;27;20212;-76
2022/09/14 00:26:08;;;;;;;4.53;4.20;;;;;;;19.41;100.00;99287.56;5107106;27;20258;-76
2022/09/14 00:28:38;;;;;;;4.80;4.30;;;;;;;19.43;100.00;99285.69;5108080;27;20200;-76
2022/09/14 00:31:04;;;;;;;4.20;3.90;;;;;;;19.44;100.00;99294.41;5096970;27;20186;-75
2022/09/14 00:33:30;;;;;;;5.00;4.53;;;;;;;19.44;100.00;99302.25;5106671;27;20194;-76
2022/09/14 00:35:55;;;;;;;5.10;4.70;;;;;;;19.44;100.00;99287.34;5110483;27;20198;-76
2022/09/14 00:38:20;;;;;;;4.80;4.30;;;;;;;19.42;100.00;99275.28;5106835;27;20204;-77
2022/09/14 00:40:59;;;;;;;4.50;4.10;;;;;;;19.43;100.00;99271.72;5082883;27;20193;-77
2022/09/14 00:43:24;;;;;;;4.40;4.10;;;;;;;19.42;100.00;99270.03;5113046;27;20599;-76
2022/09/14 00:45:49;;;;;;;5.27;4.77;;;;;;;19.40;100.00;99264.88;5101629;27;20641;-76
2022/09/14 00:48:15;;;;;;;5.33;4.80;;;;;;;19.40;100.00;99256.16;5108202;27;20354;-75
2022/09/14 00:50:40;;;;;;;5.53;5.03;;;;;;;19.38;100.00;99258.03;5093472;28;20263;-75
2022/09/14 00:53:06;;;;;;;6.13;5.50;;;;;;;19.36;100.00;99259.94;5109264;27;20221;-76
2022/09/14 00:55:32;;;;;;;5.13;4.73;;;;;;;19.33;100.00;99245.22;5109862;27;20646;-75
2022/09/14 00:57:58;;;;;;;5.90;5.43;;;;;;;19.30;100.00;99251.50;5108390;27;20197;-75
2022/09/14 01:00:26;;;;;;;6.20;5.70;;;;;;;19.27;100.00;99271.84;5109869;27;20187;-75
2022/09/14 01:02:51;;;;;;;5.77;5.27;;;;;;;19.27;100.00;99284.94;5109994;27;20184;-75
2022/09/14 01:05:20;;;;;;;5.43;5.03;;;;;;;19.27;100.00;99312.00;5110450;27;20290;-76
2022/09/14 01:07:55;;;;;;;5.50;5.03;;;;;;;19.30;100.00;99324.09;5108991;27;20188;-75
2022/09/14 01:10:39;;;;;;;5.97;5.43;;;;;;;19.30;100.00;99335.44;5107657;27;20654;-75
2022/09/14 01:13:14;;;;;;;5.47;4.97;;;;;;;19.26;100.00;99335.72;5117105;27;20216;-76
2022/09/14 01:15:55;;;;;;;6.10;5.60;;;;;;;19.24;100.00;99343.66;5089147;28;20202;-75
2022/09/14 01:18:26;;;;;;;6.00;5.40;;;;;;;19.20;100.00;99350.06;5104578;27;20264;-76
2022/09/14 01:21:01;;;;;;;6.00;5.50;;;;;;;19.18;100.00;99373.72;5115872;27;20191;-76
2022/09/14 01:23:54;;;;;;;6.20;5.70;;;;;;;19.18;100.00;99365.03;5103365;27;20933;-77
2022/09/14 01:26:38;;;;;;;6.93;6.37;;;;;;;19.16;100.00;99367.72;5101439;27;20203;-76
2022/09/14 01:29:41;;;;;;;8.70;8.00;;;;;;;19.17;100.00;99387.78;5101656;27;20638;-76
2022/09/14 01:32:15;;;;;;;9.03;8.13;;;;;;;19.15;100.00;99394.88;5083238;27;20210;-76
2022/09/14 01:34:53;;;;;;;8.73;7.93;;;;;;;19.13;100.00;99402.03;5110622;27;20183;-77
2022/09/14 01:37:29;;;;;;;9.13;8.40;;;;;;;19.10;100.00;99394.34;5105389;27;20183;-76
2022/09/14 01:40:02;;;;;;;10.57;9.57;;;;;;;19.09;100.00;99373.44;5104967;28;20300;-77
2022/09/14 01:42:28;;;;;;;9.50;8.77;;;;;;;19.04;100.00;99364.06;5109680;27;20244;-76
2022/09/14 01:44:58;;;;;;;10.07;9.23;;;;;;;19.01;100.00;99368.63;5107976;27;20215;-75
2022/09/14 01:47:33;;;;;;;10.73;9.80;;;;;;;18.99;100.00;99358.25;5103952;27;20689;-76
2022/09/14 01:50:05;;;;;;;11.07;10.07;;;;;;;18.98;100.00;99355.72;5089924;27;20199;-76
2022/09/14 01:52:49;;;;;;;11.33;10.30;;;;;;;18.94;100.00;99351.56;5092935;28;20526;-76
2022/09/14 01:55:26;;;;;;;11.30;10.30;;;;;;;18.90;100.00;99356.16;5101730;27;20319;-77
2022/09/14 01:58:10;;;;;;;11.50;10.30;;;;;;;18.87;100.00;99351.06;5103659;27;20193;-75
2022/09/14 02:00:41;;;;;;;12.80;11.60;;;;;;;18.84;100.00;99336.34;5109032;27;20192;-76
2022/09/14 02:03:14;;;;;;;12.03;11.03;;;;;;;18.84;100.00;99340.75;5107100;27;20186;-76
2022/09/14 02:06:03;;;;;;;11.33;10.40;;;;;;;18.82;100.00;99347.88;5107376;27;20191;-76
2022/09/14 02:08:29;;;;;;;11.93;10.97;;;;;;;18.79;100.00;99354.16;5104963;27;20210;-75
2022/09/14 02:10:56;;;;;;;11.83;10.83;;;;;;;18.80;100.00;99349.75;5108905;27;20640;-76
2022/09/14 02:13:22;;;;;;;12.50;11.40;;;;;;;18.80;100.00;99352.34;5089552;28;20291;-76
2022/09/14 02:15:48;;;;;;;11.30;10.40;;;;;;;18.80;100.00;99336.63;5105553;27;20256;-76
2022/09/14 02:18:13;;;;;;;11.67;10.67;;;;;;;18.78;100.00;99323.63;5105333;27;20217;-76
2022/09/14 02:20:48;;;;;;;11.33;10.43;;;;;;;18.76;100.00;99304.53;5105917;27;20217;-77
2022/09/14 02:23:13;;;;;;;13.23;11.87;;;;;;;18.73;100.00;99278.50;5106371;27;20227;-76
2022/09/14 02:25:40;;;;;;;11.53;10.53;;;;;;;18.71;100.00;99281.22;5089648;28;20710;-77
2022/09/14 02:28:06;;;;;;;11.87;10.77;;;;;;;18.70;100.00;99276.91;5108005;27;20255;-77
2022/09/14 02:30:47;;;;;;;11.73;10.80;;;;;;;18.68;100.00;99267.47;5106549;27;20190;-76
2022/09/14 02:33:28;;;;;;;11.00;10.17;;;;;;;18.64;100.00;99261.53;5103215;27;20191;-76
2022/09/14 02:35:59;;;;;;;10.53;9.70;;;;;;;18.61;100.00;99245.97;5097016;27;20722;-76
2022/09/14 02:38:45;;;;;;;10.30;9.50;;;;;;;18.60;100.00;99244.31;5086273;28;20218;-75
2022/09/14 02:41:22;;;;;;;10.83;9.97;;;;;;;18.59;100.00;99253.13;5103631;27;20193;-76
2022/09/14 02:43:58;;;;;;;10.47;9.57;;;;;;;18.57;100.00;99247.13;5105583;27;20788;-76
2022/09/14 02:46:42;;;;;;;10.93;9.93;;;;;;;18.57;100.00;99258.44;5083876;28;20663;-77
2022/09/14 02:49:23;;;;;;;10.07;9.17;;;;;;;18.55;100.00;99257.66;5102706;27;20210;-77
2022/09/14 02:51:59;;;;;;;10.17;9.37;;;;;;;18.54;100.00;99255.16;5109304;27;20657;-76
2022/09/14 02:54:28;;;;;;;10.03;9.23;;;;;;;18.53;100.00;99248.22;5080974;28;20826;-75
2022/09/14 02:56:53;;;;;;;10.47;9.57;;;;;;;18.53;100.00;99246.44;5092809;28;20194;-76
2022/09/14 02:59:19;;;;;;;11.07;10.20;;;;;;;18.52;100.00;99234.28;5100271;27;20208;-76
2022/09/14 03:01:44;;;;;;;11.07;10.17;;;;;;;18.51;100.00;99232.59;5112762;27;20606;-75
2022/09/14 03:04:09;;;;;;;10.87;10.07;;;;;;;18.52;100.00;99239.53;5110095;27;20221;-75
2022/09/14 03:06:35;;;;;;;11.57;10.67;;;;;;;18.51;100.00;99216.03;5100145;27;20214;-76
2022/09/14 03:09:01;;;;;;;11.80;10.80;;;;;;;18.51;100.00;99193.31;5101938;28;20223;-76
2022/09/14 03:11:26;;;;;;;11.33;10.30;;;;;;;18.51;100.00;99181.97;5105357;27;20207;-76
2022/09/14 03:13:51;;;;;;;11.43;10.43;;;;;;;18.54;100.00;99181.78;5105415;27;20637;-76
2022/09/14 03:16:17;;;;;;;12.87;11.70;;;;;;;18.56;100.00;99174.69;5100986;27;20186;-76
2022/09/14 03:18:43;;;;;;;13.43;12.17;;;;;;;18.57;100.00;99173.75;5103305;27;20889;-77
2022/09/14 03:21:14;;;;;;;11.77;10.83;;;;;;;18.58;100.00;99180.69;5087284;28;20221;-76
2022/09/14 03:23:42;;;;;;;11.33;10.43;;;;;;;18.58;100.00;99184.13;5111150;27;20218;-74
2022/09/14 03:26:10;;;;;;;11.60;10.67;;;;;;;18.61;100.00;99175.22;5107341;27;20214;-76
2022/09/14 03:28:36;;;;;;;11.80;10.90;;;;;;;18.64;100.00;99174.22;5086038;28;20619;-76
2022/09/14 03:31:04;;;;;;;11.10;10.10;;;;;;;18.64;100.00;99159.34;5111630;27;20211;-76
2022/09/14 03:33:29;;;;;;;11.40;10.40;;;;;;;18.62;100.00;99166.44;5106501;27;20187;-75
2022/09/14 03:35:55;;;;;;;11.27;10.37;;;;;;;18.59;100.00;99153.56;5104581;28;20173;-76
2022/09/14 03:38:25;;;;;;;10.33;9.47;;;;;;;18.57;100.00;99160.66;5101936;28;20728;-76
2022/09/14 03:40:52;;;;;;;11.07;10.17;;;;;;;18.54;100.00;99158.22;5102521;28;20216;-76
2022/09/14 03:43:17;;;;;;;12.23;11.03;;;;;;;18.54;100.00;99171.31;5086525;28;20179;-76
2022/09/14 03:45:42;;;;;;;12.90;11.90;;;;;;;18.52;100.00;99184.53;5086420;28;20239;-76
2022/09/14 03:48:10;;;;;;;13.47;12.27;;;;;;;18.54;100.00;99187.03;5099484;28;20242;-76
2022/09/14 03:50:37;;;;;;;14.10;12.93;;;;;;;18.55;100.00;99215.75;5104060;28;20190;-75
2022/09/14 03:53:03;;;;;;;15.10;13.87;;;;;;;18.56;100.00;99245.44;5094550;28;20221;-76
2022/09/14 03:55:29;;;;;;;17.07;15.53;;;;;;;18.51;100.00;99247.47;5094342;28;20189;-77
2022/09/14 03:57:55;;;;;;;15.40;14.10;;;;;;;18.39;100.00;99225.44;5106364;28;20292;-76
2022/09/14 04:00:21;;;;;;;12.30;11.23;;;;;;;18.31;100.00;99230.31;5092303;28;20648;-76
2022/09/14 04:02:47;;;;;;;11.10;10.10;;;;;;;18.19;100.00;99218.75;5085001;28;20572;-75
2022/09/14 04:05:12;;;;;;;8.90;8.17;;;;;;;18.05;100.00;99230.03;5084466;28;20291;-76
2022/09/14 04:07:37;;;;;;;8.40;7.60;;;;;;;17.98;100.00;99233.00;5102276;28;20196;-75
2022/09/14 04:10:05;;;;;;;10.70;8.70;;;;;;;17.91;100.00;99239.47;5117058;27;20234;-76
2022/09/14 04:12:37;;;;;;;9.73;8.93;;;;;;;17.89;100.00;99223.03;5111566;28;20708;-75
2022/09/14 04:15:04;;;;;;;10.27;9.37;;;;;;;17.89;100.00;99222.16;5105879;28;20177;-76
2022/09/14 04:17:31;;;;;;;9.63;8.83;;;;;;;17.91;100.00;99226.41;5110461;28;20202;-76
2022/09/14 04:19:56;;;;;;;9.47;8.77;;;;;;;17.94;100.00;99220.13;5115689;28;20611;-77
2022/09/14 04:22:22;;;;;;;10.93;9.90;;;;;;;17.96;100.00;99220.91;5104394;28;20192;-76
2022/09/14 04:24:47;;;;;;;10.27;9.47;;;;;;;17.95;100.00;99224.44;5101882;28;20979;-77
2022/09/14 04:27:12;;;;;;;9.27;8.47;;;;;;;17.96;100.00;99221.72;5106422;28;20354;-77
2022/09/14 04:29:38;;;;;;;9.77;8.97;;;;;;;17.98;100.00;99222.50;5115926;27;20236;-77
2022/09/14 04:32:03;;;;;;;9.57;8.77;;;;;;;18.02;100.00;99227.59;5113797;28;20226;-77
2022/09/14 04:34:29;;;;;;;9.50;8.70;;;;;;;18.04;100.00;99229.16;5090338;28;20177;-77
2022/09/14 04:36:54;;;;;;;9.00;8.30;;;;;;;18.06;100.00;99222.09;5107586;28;20177;-75
2022/09/14 04:39:20;;;;;;;9.27;8.57;;;;;;;18.10;100.00;99227.97;5110356;28;20301;-77
2022/09/14 04:41:45;;;;;;;8.93;8.23;;;;;;;18.13;100.00;99222.56;5089931;28;20186;-76
2022/09/14 04:44:11;;;;;;;7.73;7.13;;;;;;;18.14;100.00;99213.78;5105754;27;20300;-76
2022/09/14 04:46:40;;;;;;;8.00;7.40;;;;;;;18.15;100.00;99220.72;5105305;28;20272;-76
2022/09/14 04:49:05;;;;;;;6.87;6.37;;;;;;;18.13;100.00;99220.81;5104070;27;20984;-75
2022/09/14 04:51:32;;;;;;;7.30;6.70;;;;;;;18.16;100.00;99221.53;5105076;27;20175;-76
2022/09/14 04:54:00;;;;;;;7.33;6.73;;;;;;;18.17;100.00;99228.47;5110539;27;20728;-74
2022/09/14 04:56:27;;;;;;;7.80;7.20;;;;;;;18.18;100.00;99231.00;5115938;27;20183;-77
2022/09/14 04:58:55;;;;;;;7.27;6.67;;;;;;;18.22;100.00;99236.91;5118008;27;20208;-77
2022/09/14 05:01:26;;;;;;;7.43;6.83;;;;;;;18.25;100.00;99248.03;5091624;27;20292;-75
2022/09/14 05:03:53;;;;;;;6.30;5.90;;;;;;;18.25;100.00;99245.44;5114331;27;20730;-76
2022/09/14 05:06:23;;;;;;;6.33;5.83;;;;;;;18.27;100.00;99253.22;5113401;27;20463;-75
2022/09/14 05:08:50;;;;;;;5.77;5.33;;;;;;;18.27;100.00;99246.19;5110338;27;20305;-76
2022/09/14 05:11:17;;;;;;;5.80;5.40;;;;;;;18.27;100.00;99243.56;5105591;27;20186;-75
2022/09/14 05:13:43;;;;;;;6.10;5.60;;;;;;;18.30;100.00;99249.56;5109027;27;20190;-75
2022/09/14 05:16:15;;;;;;;6.97;6.47;;;;;;;18.31;100.00;99246.84;5117104;27;20564;-77
2022/09/14 05:18:41;;;;;;;6.60;6.10;;;;;;;18.32;100.00;99252.94;5119482;27;20692;-75
2022/09/14 05:21:09;;;;;;;6.47;5.97;;;;;;;18.35;100.00;99252.78;5108542;27;20242;-76
2022/09/14 05:23:35;;;;;;;7.10;6.60;;;;;;;18.36;100.00;99250.03;5096941;28;20219;-76
2022/09/14 05:26:04;;;;;;;7.57;6.87;;;;;;;18.38;100.00;99234.22;5117496;27;20212;-76
2022/09/14 05:28:30;;;;;;;7.60;6.97;;;;;;;18.40;100.00;99235.84;5114690;27;20207;-76
2022/09/14 05:30:56;;;;;;;7.77;7.17;;;;;;;18.42;100.00;99236.59;5107027;27;20682;-76
2022/09/14 05:33:21;;;;;;;8.37;7.70;;;;;;;18.45;100.00;99232.94;5095032;28;20178;-76
2022/09/14 05:35:48;;;;;;;9.10;8.30;;;;;;;18.47;100.00;99236.34;5106271;27;20566;-76
2022/09/14 05:38:13;;;;;;;9.37;8.57;;;;;;;18.50;100.00;99243.16;5107864;27;20306;-76
2022/09/14 05:40:39;;;;;;;9.10;8.40;;;;;;;18.51;100.00;99247.47;5122965;27;20626;-76
2022/09/14 05:43:04;;;;;;;8.60;7.80;;;;;;;18.52;100.00;99246.53;5123608;27;20179;-76
2022/09/14 05:45:30;;;;;;;8.90;8.10;;;;;;;18.52;100.00;99247.41;5090321;28;20234;-77
2022/09/14 05:48:00;;;;;;;9.73;8.93;;;;;;;18.56;100.00;99241.00;5109107;27;20681;-77
2022/09/14 05:50:25;;;;;;;10.40;9.53;;;;;;;18.58;100.00;99233.91;5117751;27;20270;-77
2022/09/14 05:52:51;;;;;;;10.87;9.97;;;;;;;18.61;100.00;99234.66;5107310;28;20648;-77
2022/09/14 05:55:16;;;;;;;13.17;11.97;;;;;;;18.62;100.00;99220.63;5113080;27;20256;-78
2022/09/14 05:57:41;;;;;;;13.03;11.90;;;;;;;18.63;100.00;99228.41;5096003;28;20186;-76
2022/09/14 06:00:07;;;;;;;14.47;13.27;;;;;;;18.65;100.00;99225.69;5112015;27;20194;-77
2022/09/14 06:02:33;;;;;;;12.53;11.53;;;;;;;18.66;100.00;99230.84;5106219;27;20178;-76
2022/09/14 06:04:58;;;;;;;14.70;13.40;;;;;;;18.69;100.00;99230.66;5112711;27;20213;-78
2022/09/14 06:07:23;;;;;;;14.73;13.53;;;;;;;18.72;100.00;99229.63;5112065;27;20203;-76
2022/09/14 06:09:49;;;;;;;16.53;15.00;;;;;;;18.76;100.00;99236.38;5117052;27;20207;-77
2022/09/14 06:12:14;;;;;;;15.73;14.30;;;;;;;18.77;100.00;99226.72;5113704;27;20248;-76
2022/09/14 06:14:39;;;;;;;15.90;14.43;;;;;;;18.82;100.00;99232.53;5090175;28;20187;-75
2022/09/14 06:17:05;;;;;;;19.47;17.63;;;;;;;18.87;100.00;99238.34;5092487;27;20182;-76
2022/09/14 06:19:31;;;;;;;17.90;16.30;;;;;;;18.86;100.00;99241.91;5111314;27;20216;-76
2022/09/14 06:21:56;;;;;;;19.20;17.30;;;;;;;18.88;100.00;99234.81;5104324;28;20203;-75
2022/09/14 06:24:22;;;;;;;18.60;16.90;;;;;;;18.87;100.00;99233.13;5106056;27;20212;-77
2022/09/14 06:26:47;;;;;;;18.83;17.23;;;;;;;18.87;100.00;99227.88;5101526;27;20309;-76
2022/09/14 06:29:13;;;;;;;21.73;19.60;;;;;;;18.88;100.00;99224.31;5096188;28;20210;-76
2022/09/14 06:31:39;;;;;;;21.67;19.47;;;;;;;18.88;100.00;99219.06;5094555;27;21042;-76
2022/09/14 06:34:04;;;;;;;20.90;18.93;;;;;;;18.91;100.00;99226.72;5110435;27;20191;-76
2022/09/14 06:36:29;;;;;;;22.17;20.13;;;;;;;18.97;100.00;99222.94;5108522;27;20233;-76
2022/09/14 06:38:57;;;;;;;22.83;20.40;;;;;;;19.02;100.00;99218.25;5112982;27;20207;-75
2022/09/14 06:41:27;;;;;;;24.67;22.37;;;;;;;19.07;100.00;99215.34;5093573;28;20273;-76
2022/09/14 06:43:55;;;;;;;21.83;19.63;;;;;;;19.13;100.00;99215.84;5108588;27;20226;-76
2022/09/14 06:46:23;;;;;;;20.57;18.67;;;;;;;19.22;100.00;99211.78;5110648;27;20208;-77
2022/09/14 06:49:02;;;;;;;21.10;19.10;;;;;;;19.30;100.00;99203.41;5113349;27;20217;-76
2022/09/14 06:51:34;;;;;;;20.80;18.90;;;;;;;19.30;100.00;99220.03;5090990;28;20781;-76
2022/09/14 06:54:00;;;;;;;21.03;19.07;;;;;;;19.30;100.00;99219.16;5115681;27;20182;-76
2022/09/14 06:56:37;;;;;;;20.70;18.80;;;;;;;19.28;100.00;99219.28;5124689;27;20171;-77
2022/09/14 06:59:04;;;;;;;18.43;16.83;;;;;;;19.24;100.00;99211.69;5115783;27;20202;-76
2022/09/14 07:01:29;;;;;;;19.80;17.80;;;;;;;19.26;100.00;99204.56;5108684;27;20179;-76
2022/09/14 07:03:56;;;;;;;19.80;18.00;;;;;;;19.30;100.00;99214.78;5098954;27;20202;-76
2022/09/14 07:06:24;;;;;;;20.20;18.30;;;;;;;19.39;100.00;99208.09;5103855;28;20226;-77
2022/09/14 07:08:51;;;;;;;20.40;18.60;;;;;;;19.49;100.00;99211.81;5116215;27;20716;-77
2022/09/14 07:11:24;;;;;;;19.37;17.67;;;;;;;19.60;100.00;99219.03;5113081;27;20265;-77
2022/09/14 07:13:53;;;;;;;20.50;18.70;;;;;;;19.77;100.00;99196.94;5104210;28;20219;-76
2022/09/14 07:16:19;;;;;;;20.93;18.90;;;;;;;20.01;100.00;99203.34;5112100;27;20188;-76
2022/09/14 07:18:44;;;;;;;17.03;15.60;;;;;;;20.34;100.00;99204.66;5106203;27;20343;-76
2022/09/14 07:21:15;;;;;;;16.73;15.13;;;;;;;20.72;100.00;99214.38;5121382;27;20626;-76
2022/09/14 07:23:45;;;;;;;15.23;13.93;;;;;;;21.14;100.00;99212.38;5116846;27;20257;-75
2022/09/14 07:26:41;;;;;;;13.53;12.43;;;;;;;21.53;100.00;99203.53;5113062;27;20228;-75
2022/09/14 07:29:10;;;;;;;11.83;10.83;;;;;;;21.81;100.00;99191.88;5124690;27;20203;-75
2022/09/14 07:31:39;;;;;;;10.80;9.90;;;;;;;22.05;100.00;99205.03;5103951;28;20275;-76
2022/09/14 07:34:05;;;;;;;9.77;9.03;;;;;;;22.25;100.00;99220.28;5102191;28;20199;-76
2022/09/14 07:36:33;;;;;;;9.83;9.00;;;;;;;22.37;100.00;99214.94;5113107;27;20639;-76
2022/09/14 07:38:58;;;;;;;8.93;8.23;;;;;;;22.41;100.00;99226.09;5114744;27;20200;-77
2022/09/14 07:41:27;;;;;;;8.53;7.83;;;;;;;22.42;100.00;99234.84;5088221;28;20184;-75
2022/09/14 07:43:58;;;;;;;8.67;7.97;;;;;;;22.39;100.00;99226.19;5092881;28;20257;-76
2022/09/14 07:46:25;;;;;;;8.40;7.70;;;;;;;22.36;100.00;99230.88;5104126;28;20233;-76
2022/09/14 07:48:55;;;;;;;8.73;7.90;;;;;;;22.37;100.00;99236.03;5105758;28;20208;-76
2022/09/14 07:51:21;;;;;;;8.67;7.87;;;;;;;22.45;100.00;99242.53;5099665;28;20176;-76
2022/09/14 07:53:46;;;;;;;8.50;7.80;;;;;;;22.53;100.00;99253.38;5102627;28;20779;-77
2022/09/14 07:56:15;;;;;;;8.57;7.87;;;;;;;22.57;100.00;99257.44;5107896;28;20204;-77
2022/09/14 07:58:41;;;;;;;7.60;6.90;;;;;;;22.63;100.00;99251.69;5104725;28;20223;-77
2022/09/14 08:01:08;;;;;;;7.73;7.13;;;;;;;22.78;100.00;99256.75;5091341;28;20206;-76
2022/09/14 08:03:38;;;;;;;7.90;7.30;;;;;;;22.97;100.00;99266.72;5109908;28;20994;-79
2022/09/14 08:06:06;;;;;;;7.90;7.30;;;;;;;23.21;100.00;99266.66;5099672;28;20190;-76
2022/09/14 08:08:34;;;;;;;7.87;7.17;;;;;;;23.46;100.00;99277.91;5105117;28;20207;-77
2022/09/14 08:11:12;;;;;;;7.97;7.27;;;;;;;23.63;100.00;99281.00;5093024;28;20176;-76
2022/09/14 08:13:41;;;;;;;7.80;7.00;;;;;;;23.65;100.00;99272.03;5105704;28;20172;-75
2022/09/14 08:16:08;;;;;;;7.73;7.13;;;;;;;23.66;100.00;99276.34;5104229;28;20267;-76
2022/09/14 08:18:35;;;;;;;6.67;6.07;;;;;;;23.77;100.00;99283.38;5088878;28;20204;-76
2022/09/14 08:21:09;;;;;;;6.87;6.37;;;;;;;23.90;100.00;99293.81;5105808;28;20213;-76
2022/09/14 08:23:35;;;;;;;7.00;6.40;;;;;;;23.97;100.00;99296.84;5098938;27;20222;-76
2022/09/14 08:26:06;;;;;;;6.47;5.87;;;;;;;23.96;100.00;99295.13;5112179;27;20195;-76
2022/09/14 08:28:32;;;;;;;6.13;5.60;;;;;;;23.98;100.00;99301.16;5107637;27;20207;-76
2022/09/14 08:31:07;;;;;;;5.50;5.00;;;;;;;24.00;100.00;99289.47;5113226;27;20184;-77
2022/09/14 08:33:35;;;;;;;5.23;4.77;;;;;;;24.07;100.00;99289.81;5094323;28;20176;-76
2022/09/14 08:36:01;;;;;;;5.50;5.03;;;;;;;24.15;100.00;99278.63;5094316;28;20260;-77
2022/09/14 08:38:27;;;;;;;5.27;4.87;;;;;;;24.19;100.00;99270.34;5090423;28;20769;-76
2022/09/14 08:40:53;;;;;;;5.40;4.80;;;;;;;24.24;100.00;99285.81;5104147;27;20185;-76
2022/09/14 08:43:21;;;;;;;6.60;5.20;;;;;;;24.31;100.00;99286.16;5107219;28;20417;-75
2022/09/14 08:45:48;;;;;;;5.20;4.80;;;;;;;24.38;100.00;99295.22;5113608;27;20833;-76
2022/09/14 08:48:21;;;;;;;6.17;4.43;;;;;;;24.48;100.00;99293.53;5112957;27;20227;-76
2022/09/14 08:50:52;;;;;;;4.67;4.27;;;;;;;24.59;100.00;99291.78;5122892;27;20793;-76
2022/09/14 08:53:20;;;;;;;4.10;3.80;;;;;;;24.81;100.00;99296.13;5101066;28;20189;-76
2022/09/14 08:55:52;;;;;;;4.10;3.70;;;;;;;25.11;100.00;99297.13;5109744;27;20183;-76
2022/09/14 08:58:26;;;;;;;4.40;3.63;;;;;;;25.37;100.00;99294.03;5117834;27;20196;-76
2022/09/14 09:01:01;;;;;;;3.40;3.10;;;;;;;25.53;100.00;99286.44;5121688;27;20175;-76
2022/09/14 09:03:32;;;;;;;3.57;3.27;;;;;;;25.65;100.00;99287.19;5112815;27;20178;-76
2022/09/14 09:06:29;;;;;;;3.63;2.97;;;;;;;25.76;100.00;99277.44;5099968;28;20242;-76
2022/09/14 09:09:01;;;;;;;4.83;3.20;;;;;;;25.91;100.00;99278.72;5099943;28;20288;-76
2022/09/14 09:11:38;;;;;;;3.53;3.23;;;;;;;25.94;100.00;99274.97;5112846;27;20180;-77
2022/09/14 09:14:28;;;;;;;3.20;2.97;;;;;;;25.92;100.00;99271.63;5110988;27;20191;-77
2022/09/14 09:16:55;;;;;;;3.30;3.00;;;;;;;25.85;100.00;99282.75;5112727;27;20188;-77
2022/09/14 09:19:29;;;;;;;3.70;2.97;;;;;;;25.90;100.00;99278.88;5107106;28;20559;-77
2022/09/14 09:21:56;;;;;;;3.30;2.93;;;;;;;26.01;100.00;99266.34;5092332;28;20220;-76
2022/09/14 09:24:27;;;;;;;5.27;3.63;;;;;;;26.23;100.00;99266.22;5094877;28;20569;-76
2022/09/14 09:26:52;;;;;;;4.30;3.53;;;;;;;26.28;100.00;99256.00;5125413;27;20185;-77
2022/09/14 09:29:18;;;;;;;4.67;3.90;;;;;;;26.26;100.00;99264.13;5092710;27;20192;-76
2022/09/14 09:31:47;;;;;;;4.37;3.33;;;;;;;26.22;100.00;99256.59;5119218;27;20183;-75
2022/09/14 09:34:15;;;;;;;4.50;3.20;;;;;;;26.20;100.00;99253.25;5100418;28;20203;-76
2022/09/14 09:36:45;;;;;;;3.97;3.13;;;;;;;26.32;100.00;99239.69;5112632;27;20181;-77
2022/09/14 09:39:11;;;;;;;3.13;2.90;;;;;;;26.56;100.00;99237.53;5092911;27;20211;-75
2022/09/14 09:41:55;;;;;;;2.83;2.63;;;;;;;26.72;100.00;99237.78;5106684;27;20187;-76
2022/09/14 09:44:21;;;;;;;2.60;2.40;;;;;;;26.81;100.00;99235.28;5113478;27;20323;-76
2022/09/14 09:46:50;;;;;;;4.60;2.93;;;;;;;26.85;100.00;99226.06;5120471;27;20646;-75
2022/09/14 09:49:21;;;;;;;3.13;2.83;;;;;;;26.72;100.00;99215.72;5108477;27;20333;-76
2022/09/14 09:51:48;;;;;;;4.10;2.83;;;;;;;26.72;100.00;99211.25;5091357;28;20263;-75
2022/09/14 09:54:14;;;;;;;3.20;2.77;;;;;;;26.65;100.00;99210.16;5112206;27;20335;-76
2022/09/14 09:56:57;;;;;;;2.80;2.53;;;;;;;26.57;100.00;99207.38;5101021;27;20647;-77
2022/09/14 09:59:38;;;;;;;3.30;3.00;;;;;;;26.45;100.00;99209.38;5111762;27;20199;-75
2022/09/14 10:02:20;;;;;;;3.07;2.73;;;;;;;26.35;100.00;99201.44;5109452;27;20176;-76
2022/09/14 10:05:07;;;;;;;3.73;2.87;;;;;;;26.31;100.00;99200.91;5101560;27;20215;-75
2022/09/14 10:07:47;;;;;;;3.20;2.80;;;;;;;26.26;100.00;99187.22;5110906;27;20230;-75
2022/09/14 10:10:15;;;;;;;3.47;2.77;;;;;;;26.30;100.00;99187.75;5087539;28;20275;-76
2022/09/14 10:12:55;;;;;;;3.33;2.67;;;;;;;26.28;100.00;99179.97;5124785;27;20183;-76
2022/09/14 10:15:25;;;;;;;3.10;2.80;;;;;;;26.30;100.00;99178.00;5082437;28;20204;-76
2022/09/14 10:18:10;;;;;;;2.87;2.50;;;;;;;26.38;100.00;99163.19;5092216;28;20196;-76
2022/09/14 10:20:58;;;;;;;3.13;2.53;;;;;;;26.49;100.00;99147.09;5109500;27;20226;-76
2022/09/14 10:23:26;;;;;;;4.73;2.83;;;;;;;26.61;100.00;99147.75;5093109;27;20819;-76
2022/09/14 10:26:12;;;;;;;2.87;2.50;;;;;;;26.70;100.00;99138.09;5109109;27;20202;-76
2022/09/14 10:29:19;;;;;;;2.80;2.60;;;;;;;26.77;100.00;99124.09;5106658;28;20277;-76
2022/09/14 10:31:47;;;;;;;3.10;2.90;;;;;;;26.84;100.00;99126.19;5104022;27;20224;-76
2022/09/14 10:34:19;;;;;;;3.97;2.47;;;;;;;26.91;100.00;99106.03;5107061;27;20207;-76
2022/09/14 10:36:54;;;;;;;2.97;2.40;;;;;;;27.01;100.00;99109.44;5106941;27;20196;-76
2022/09/14 10:39:24;;;;;;;3.07;2.20;;;;;;;27.13;100.00;99102.09;5111812;27;20198;-75
2022/09/14 10:42:13;;;;;;;2.53;2.23;;;;;;;27.20;100.00;99097.03;5114732;27;20303;-75
2022/09/14 10:45:16;;;;;;;2.50;2.30;;;;;;;27.23;100.00;99102.03;5093311;28;20245;-77
2022/09/14 10:48:01;;;;;;;3.20;2.37;;;;;;;27.33;100.00;99089.53;5092618;28;20195;-77
2022/09/14 10:50:32;;;;;;;2.60;2.40;;;;;;;27.49;100.00;99088.03;5103562;27;20191;-76
2022/09/14 10:53:27;;;;;;;3.23;2.93;;;;;;;27.74;100.00;99090.91;5104482;27;20663;-76
2022/09/14 10:56:04;;;;;;;2.77;2.27;;;;;;;27.95;100.00;99080.75;5114970;27;20229;-76
2022/09/14 10:58:38;;;;;;;3.13;2.60;;;;;;;28.12;99.79;99084.41;5111806;27;20635;-76
2022/09/14 11:01:32;;;;;;;3.33;2.40;;;;;;;28.21;99.18;99081.78;5114302;27;20568;-75
2022/09/14 11:04:32;;;;;;;3.97;2.20;;;;;;;28.14;95.89;99086.91;5106934;27;20227;-77
2022/09/14 11:07:07;;;;;;;2.53;2.10;;;;;;;27.93;97.29;99089.88;5092408;28;20544;-76
2022/09/14 11:09:42;;;;;;;3.03;2.40;;;;;;;27.85;98.16;99085.34;5111393;27;20192;-77
2022/09/14 11:12:17;;;;;;;2.27;2.07;;;;;;;27.91;98.72;99084.69;5111094;27;20224;-76
2022/09/14 11:15:11;;;;;;;3.30;2.70;;;;;;;28.12;98.04;99078.22;5105757;27;20557;-76
2022/09/14 11:18:05;;;;;;;3.97;2.47;;;;;;;28.31;96.50;99076.34;5105658;27;20271;-77
2022/09/14 11:21:18;;;;;;;2.50;2.30;;;;;;;28.39;96.46;99073.72;5108310;27;20200;-75
2022/09/14 11:23:50;;;;;;;3.40;1.97;;;;;;;28.55;95.30;99060.47;5121538;27;20207;-77
2022/09/14 11:26:25;;;;;;;3.63;2.30;;;;;;;28.55;94.96;99052.50;5103640;27;20183;-76
2022/09/14 11:28:55;;;;;;;3.90;2.20;;;;;;;28.56;93.67;99059.50;5104616;28;20254;-77
2022/09/14 11:31:33;;;;;;;2.43;2.10;;;;;;;28.51;94.70;99064.44;5099853;28;20176;-79
2022/09/14 11:34:16;;;;;;;3.30;2.03;;;;;;;28.44;94.34;99060.78;5108272;27;20176;-75
2022/09/14 11:36:49;;;;;;;3.33;2.07;;;;;;;28.35;93.11;99057.25;5099878;27;20180;-77